sensor_id;sensor_type;location;lat;lon;timestamp;temperature;humidity
31639;DHT22;18248;51.522;7.020;2022-12-18T00:01:04;-5.50;99.90
31639;DHT22;18248;51.522;7.020;2022-12-18T00:04:06;-5.50;99.90
31639;DHT22;18248;51.522;7.020;2022-12-18T00:07:06;-5.50;99.90
31639;DHT22;18248;51.522;7.020;2022-12-18T00:10:05;-5.50;99.90
31639;DHT22;18248;51.522;7.020;2022-12-18T00:13:03;-5.50;99.90
31639;DHT22;18248;51.522;7.020;2022-12-18T00:16:07;-5.50;99.90
31639;DHT22;18248;51.522;7.020;2022-12-18T00:19:06;-5.60;99.90
31639;DHT22;18248;51.522;7.020;2022-12-18T00:22:05;-5.60;99.90
31639;DHT22;18248;51.522;7.020;2022-12-18T00:25:04;-5.60;99.90
31639;DHT22;18248;51.522;7.020;2022-12-18T00:28:03;-5.60;99.90
31639;DHT22;18248;51.522;7.020;2022-12-18T00:31:07;-5.60;99.90
31639;DHT22;18248;51.522;7.020;2022-12-18T00:34:05;-5.70;99.90
31639;DHT22;18248;51.522;7.020;2022-12-18T00:37:04;-5.70;99.90
31639;DHT22;18248;51.522;7.020;2022-12-18T00:40:03;-5.80;99.90
31639;DHT22;18248;51.522;7.020;2022-12-18T00:43:02;-5.80;99.90
31639;DHT22;18248;51.522;7.020;2022-12-18T00:46:00;-5.80;99.90
31639;DHT22;18248;51.522;7.020;2022-12-18T00:48:59;-5.80;99.90
31639;DHT22;18248;51.522;7.020;2022-12-18T00:51:58;-5.80;99.90
31639;DHT22;18248;51.522;7.020;2022-12-18T00:54:56;-5.80;99.90
31639;DHT22;18248;51.522;7.020;2022-12-18T00:57:55;-5.80;99.90
31639;DHT22;18248;51.522;7.020;2022-12-18T01:00:53;-5.80;99.90
31639;DHT22;18248;51.522;7.020;2022-12-18T01:03:52;-5.80;99.90
31639;DHT22;18248;51.522;7.020;2022-12-18T01:06:50;-5.90;99.90
31639;DHT22;18248;51.522;7.020;2022-12-18T01:09:49;-5.90;99.90
31639;DHT22;18248;51.522;7.020;2022-12-18T01:12:47;-5.80;99.90
31639;DHT22;18248;51.522;7.020;2022-12-18T01:15:50;-5.90;99.90
31639;DHT22;18248;51.522;7.020;2022-12-18T01:18:53;-5.90;99.90
31639;DHT22;18248;51.522;7.020;2022-12-18T01:21:55;-5.90;99.90
31639;DHT22;18248;51.522;7.020;2022-12-18T01:24:53;-5.90;99.90
31639;DHT22;18248;51.522;7.020;2022-12-18T01:27:55;-5.90;99.90
31639;DHT22;18248;51.522;7.020;2022-12-18T01:30:53;-5.90;99.90
31639;DHT22;18248;51.522;7.020;2022-12-18T01:33:52;-5.90;99.90
31639;DHT22;18248;51.522;7.020;2022-12-18T01:36:51;-6.00;99.90
31639;DHT22;18248;51.522;7.020;2022-12-18T01:39:51;-6.00;99.90
31639;DHT22;18248;51.522;7.020;2022-12-18T01:42:52;-5.90;99.90
31639;DHT22;18248;51.522;7.020;2022-12-18T01:45:51;-6.00;99.90
31639;DHT22;18248;51.522;7.020;2022-12-18T01:48:59;-6.00;99.90
31639;DHT22;18248;51.522;7.020;2022-12-18T01:51:58;-6.00;99.90
31639;DHT22;18248;51.522;7.020;2022-12-18T01:54:59;-6.00;99.90
31639;DHT22;18248;51.522;7.020;2022-12-18T01:57:59;-6.00;99.90
31639;DHT22;18248;51.522;7.020;2022-12-18T02:00:58;-6.00;99.90
31639;DHT22;18248;51.522;7.020;2022-12-18T02:04:21;-6.00;99.90
31639;DHT22;18248;51.522;7.020;2022-12-18T02:11:17;-6.00;99.90
31639;DHT22;18248;51.522;7.020;2022-12-18T02:14:28;-6.10;99.90
31639;DHT22;18248;51.522;7.020;2022-12-18T02:17:57;-6.10;99.90
31639;DHT22;18248;51.522;7.020;2022-12-18T02:21:22;-6.10;99.90
31639;DHT22;18248;51.522;7.020;2022-12-18T02:27:39;-6.10;99.90
31639;DHT22;18248;51.522;7.020;2022-12-18T02:30:39;-6.10;99.90
31639;DHT22;18248;51.522;7.020;2022-12-18T02:33:40;-6.20;99.90
31639;DHT22;18248;51.522;7.020;2022-12-18T02:36:42;-6.20;99.90
31639;DHT22;18248;51.522;7.020;2022-12-18T02:39:43;-6.20;99.90
31639;DHT22;18248;51.522;7.020;2022-12-18T02:42:42;-6.20;99.90
31639;DHT22;18248;51.522;7.020;2022-12-18T02:45:54;-6.20;99.90
31639;DHT22;18248;51.522;7.020;2022-12-18T02:49:03;-6.20;99.90
31639;DHT22;18248;51.522;7.020;2022-12-18T02:52:23;-6.20;99.90
31639;DHT22;18248;51.522;7.020;2022-12-18T02:59:13;-6.30;99.90
31639;DHT22;18248;51.522;7.020;2022-12-18T03:02:47;-6.30;99.90
31639;DHT22;18248;51.522;7.020;2022-12-18T03:05:53;-6.30;99.90
31639;DHT22;18248;51.522;7.020;2022-12-18T03:08:59;-6.30;99.90
31639;DHT22;18248;51.522;7.020;2022-12-18T03:15:31;-6.40;99.90
31639;DHT22;18248;51.522;7.020;2022-12-18T03:18:38;-6.40;99.90
31639;DHT22;18248;51.522;7.020;2022-12-18T03:21:42;-6.40;99.90
31639;DHT22;18248;51.522;7.020;2022-12-18T03:24:41;-6.40;99.90
31639;DHT22;18248;51.522;7.020;2022-12-18T03:27:43;-6.40;99.90
31639;DHT22;18248;51.522;7.020;2022-12-18T03:30:44;-6.40;99.90
31639;DHT22;18248;51.522;7.020;2022-12-18T03:33:51;-6.40;99.90
31639;DHT22;18248;51.522;7.020;2022-12-18T03:36:49;-6.50;99.90
31639;DHT22;18248;51.522;7.020;2022-12-18T03:39:48;-6.40;99.90
31639;DHT22;18248;51.522;7.020;2022-12-18T03:42:51;-6.50;99.90
31639;DHT22;18248;51.522;7.020;2022-12-18T03:45:54;-6.50;99.90
31639;DHT22;18248;51.522;7.020;2022-12-18T03:49:16;-6.40;99.90
31639;DHT22;18248;51.522;7.020;2022-12-18T03:55:41;-6.40;99.90
31639;DHT22;18248;51.522;7.020;2022-12-18T03:58:43;-6.40;99.90
31639;DHT22;18248;51.522;7.020;2022-12-18T04:01:49;-6.40;99.90
31639;DHT22;18248;51.522;7.020;2022-12-18T04:04:55;-6.40;99.90
31639;DHT22;18248;51.522;7.020;2022-12-18T04:07:56;-6.50;99.90
31639;DHT22;18248;51.522;7.020;2022-12-18T04:10:55;-6.40;99.90
31639;DHT22;18248;51.522;7.020;2022-12-18T04:13:57;-6.50;99.90
31639;DHT22;18248;51.522;7.020;2022-12-18T04:16:56;-6.50;99.90
31639;DHT22;18248;51.522;7.020;2022-12-18T04:19:54;-6.40;99.90
31639;DHT22;18248;51.522;7.020;2022-12-18T04:22:53;-6.50;99.90
31639;DHT22;18248;51.522;7.020;2022-12-18T04:25:51;-6.40;99.90
31639;DHT22;18248;51.522;7.020;2022-12-18T04:28:50;-6.50;99.90
31639;DHT22;18248;51.522;7.020;2022-12-18T04:31:48;-6.50;99.90
31639;DHT22;18248;51.522;7.020;2022-12-18T04:34:47;-6.50;99.90
31639;DHT22;18248;51.522;7.020;2022-12-18T04:37:46;-6.40;99.90
31639;DHT22;18248;51.522;7.020;2022-12-18T04:40:44;-6.40;99.90
31639;DHT22;18248;51.522;7.020;2022-12-18T04:43:43;-6.40;99.90
31639;DHT22;18248;51.522;7.020;2022-12-18T04:46:41;-6.40;99.90
31639;DHT22;18248;51.522;7.020;2022-12-18T04:49:40;-6.40;99.90
31639;DHT22;18248;51.522;7.020;2022-12-18T04:52:38;-6.40;99.90
31639;DHT22;18248;51.522;7.020;2022-12-18T04:55:37;-6.40;99.90
31639;DHT22;18248;51.522;7.020;2022-12-18T04:58:36;-6.40;99.90
31639;DHT22;18248;51.522;7.020;2022-12-18T05:01:35;-6.40;99.90
31639;DHT22;18248;51.522;7.020;2022-12-18T05:04:33;-6.40;99.90
31639;DHT22;18248;51.522;7.020;2022-12-18T05:07:32;-6.40;99.90
31639;DHT22;18248;51.522;7.020;2022-12-18T05:10:30;-6.40;99.90
31639;DHT22;18248;51.522;7.020;2022-12-18T05:13:29;-6.40;99.90
31639;DHT22;18248;51.522;7.020;2022-12-18T05:16:28;-6.40;99.90
31639;DHT22;18248;51.522;7.020;2022-12-18T05:19:26;-6.50;99.90
31639;DHT22;18248;51.522;7.020;2022-12-18T05:22:25;-6.50;99.90
31639;DHT22;18248;51.522;7.020;2022-12-18T05:25:24;-6.50;99.90
31639;DHT22;18248;51.522;7.020;2022-12-18T05:28:24;-6.50;99.90
31639;DHT22;18248;51.522;7.020;2022-12-18T05:31:23;-6.50;99.90
31639;DHT22;18248;51.522;7.020;2022-12-18T05:34:21;-6.50;99.90
31639;DHT22;18248;51.522;7.020;2022-12-18T05:37:20;-6.50;99.90
31639;DHT22;18248;51.522;7.020;2022-12-18T05:40:19;-6.60;99.90
31639;DHT22;18248;51.522;7.020;2022-12-18T05:43:18;-6.60;99.90
31639;DHT22;18248;51.522;7.020;2022-12-18T05:46:18;-6.60;99.90
31639;DHT22;18248;51.522;7.020;2022-12-18T05:49:16;-6.60;99.90
31639;DHT22;18248;51.522;7.020;2022-12-18T05:52:15;-6.60;99.90
31639;DHT22;18248;51.522;7.020;2022-12-18T05:55:13;-6.70;99.90
31639;DHT22;18248;51.522;7.020;2022-12-18T05:58:13;-6.60;99.90
31639;DHT22;18248;51.522;7.020;2022-12-18T06:01:19;-6.70;99.90
31639;DHT22;18248;51.522;7.020;2022-12-18T06:04:18;-6.70;99.90
31639;DHT22;18248;51.522;7.020;2022-12-18T06:07:17;-6.70;99.90
31639;DHT22;18248;51.522;7.020;2022-12-18T06:10:16;-6.80;99.90
31639;DHT22;18248;51.522;7.020;2022-12-18T06:13:14;-6.70;99.90
31639;DHT22;18248;51.522;7.020;2022-12-18T06:16:13;-6.70;99.90
31639;DHT22;18248;51.522;7.020;2022-12-18T06:19:15;-6.80;99.90
31639;DHT22;18248;51.522;7.020;2022-12-18T06:22:13;-6.70;99.90
31639;DHT22;18248;51.522;7.020;2022-12-18T06:25:12;-6.80;99.90
31639;DHT22;18248;51.522;7.020;2022-12-18T06:28:10;-6.80;99.90
31639;DHT22;18248;51.522;7.020;2022-12-18T06:31:09;-6.70;99.90
31639;DHT22;18248;51.522;7.020;2022-12-18T06:34:08;-6.70;99.90
31639;DHT22;18248;51.522;7.020;2022-12-18T06:37:07;-6.70;99.90
31639;DHT22;18248;51.522;7.020;2022-12-18T06:40:06;-6.60;99.90
31639;DHT22;18248;51.522;7.020;2022-12-18T06:43:05;-6.70;99.90
31639;DHT22;18248;51.522;7.020;2022-12-18T06:46:04;-6.60;99.90
31639;DHT22;18248;51.522;7.020;2022-12-18T06:49:03;-6.60;99.90
31639;DHT22;18248;51.522;7.020;2022-12-18T06:52:02;-6.60;99.90
31639;DHT22;18248;51.522;7.020;2022-12-18T06:55:00;-6.70;99.90
31639;DHT22;18248;51.522;7.020;2022-12-18T06:57:59;-6.60;99.90
31639;DHT22;18248;51.522;7.020;2022-12-18T07:01:01;-6.70;99.90
31639;DHT22;18248;51.522;7.020;2022-12-18T07:04:03;-6.60;99.90
31639;DHT22;18248;51.522;7.020;2022-12-18T07:07:02;-6.60;99.90
31639;DHT22;18248;51.522;7.020;2022-12-18T07:10:00;-6.60;99.90
31639;DHT22;18248;51.522;7.020;2022-12-18T07:12:59;-6.60;99.90
31639;DHT22;18248;51.522;7.020;2022-12-18T07:16:24;-6.60;99.90
31639;DHT22;18248;51.522;7.020;2022-12-18T07:19:25;-6.60;99.90
31639;DHT22;18248;51.522;7.020;2022-12-18T07:22:25;-6.60;99.90
31639;DHT22;18248;51.522;7.020;2022-12-18T07:25:24;-6.60;99.90
31639;DHT22;18248;51.522;7.020;2022-12-18T07:28:22;-6.60;99.90
31639;DHT22;18248;51.522;7.020;2022-12-18T07:31:22;-6.70;99.90
31639;DHT22;18248;51.522;7.020;2022-12-18T07:34:20;-6.60;99.90
31639;DHT22;18248;51.522;7.020;2022-12-18T07:37:19;-6.60;99.90
31639;DHT22;18248;51.522;7.020;2022-12-18T07:40:17;-6.60;99.90
31639;DHT22;18248;51.522;7.020;2022-12-18T07:43:16;-6.60;99.90
31639;DHT22;18248;51.522;7.020;2022-12-18T07:46:15;-6.60;99.90
31639;DHT22;18248;51.522;7.020;2022-12-18T07:49:15;-6.50;99.90
31639;DHT22;18248;51.522;7.020;2022-12-18T07:52:13;-6.50;99.90
31639;DHT22;18248;51.522;7.020;2022-12-18T07:55:12;-6.50;99.90
31639;DHT22;18248;51.522;7.020;2022-12-18T07:58:10;-6.40;99.90
31639;DHT22;18248;51.522;7.020;2022-12-18T08:01:11;-6.40;99.90
31639;DHT22;18248;51.522;7.020;2022-12-18T08:04:09;-6.30;99.90
31639;DHT22;18248;51.522;7.020;2022-12-18T08:07:09;-6.30;99.90
31639;DHT22;18248;51.522;7.020;2022-12-18T08:10:08;-6.30;99.90
31639;DHT22;18248;51.522;7.020;2022-12-18T08:13:06;-6.30;99.90
31639;DHT22;18248;51.522;7.020;2022-12-18T08:16:07;-6.20;99.90
31639;DHT22;18248;51.522;7.020;2022-12-18T08:19:05;-6.20;99.90
31639;DHT22;18248;51.522;7.020;2022-12-18T08:22:04;-6.10;99.90
31639;DHT22;18248;51.522;7.020;2022-12-18T08:25:03;-6.10;99.90
31639;DHT22;18248;51.522;7.020;2022-12-18T08:28:02;-6.10;99.90
31639;DHT22;18248;51.522;7.020;2022-12-18T08:31:00;-6.00;99.90
31639;DHT22;18248;51.522;7.020;2022-12-18T08:33:59;-5.90;99.90
31639;DHT22;18248;51.522;7.020;2022-12-18T08:36:58;-5.90;99.90
31639;DHT22;18248;51.522;7.020;2022-12-18T08:39:56;-5.80;99.90
31639;DHT22;18248;51.522;7.020;2022-12-18T08:42:55;-5.70;99.90
31639;DHT22;18248;51.522;7.020;2022-12-18T08:46:12;-5.50;99.90
31639;DHT22;18248;51.522;7.020;2022-12-18T08:49:11;-5.40;99.90
31639;DHT22;18248;51.522;7.020;2022-12-18T08:52:09;-5.20;99.90
31639;DHT22;18248;51.522;7.020;2022-12-18T08:55:09;-5.10;99.90
31639;DHT22;18248;51.522;7.020;2022-12-18T08:58:09;-5.00;99.90
31639;DHT22;18248;51.522;7.020;2022-12-18T09:01:10;-4.90;99.90
31639;DHT22;18248;51.522;7.020;2022-12-18T09:04:09;-4.80;99.90
31639;DHT22;18248;51.522;7.020;2022-12-18T09:07:08;-4.70;99.90
31639;DHT22;18248;51.522;7.020;2022-12-18T09:10:07;-4.60;99.90
31639;DHT22;18248;51.522;7.020;2022-12-18T09:13:05;-4.50;99.90
31639;DHT22;18248;51.522;7.020;2022-12-18T09:16:04;-4.50;99.90
31639;DHT22;18248;51.522;7.020;2022-12-18T09:19:04;-4.30;99.90
31639;DHT22;18248;51.522;7.020;2022-12-18T09:22:02;-4.20;99.90
31639;DHT22;18248;51.522;7.020;2022-12-18T09:25:01;-4.10;99.90
31639;DHT22;18248;51.522;7.020;2022-12-18T09:28:06;-4.00;99.90
31639;DHT22;18248;51.522;7.020;2022-12-18T09:31:10;-4.00;99.90
31639;DHT22;18248;51.522;7.020;2022-12-18T09:34:09;-3.80;99.90
31639;DHT22;18248;51.522;7.020;2022-12-18T09:37:07;-3.70;99.90
31639;DHT22;18248;51.522;7.020;2022-12-18T09:40:06;-3.60;99.90
31639;DHT22;18248;51.522;7.020;2022-12-18T09:43:05;-3.50;99.90
31639;DHT22;18248;51.522;7.020;2022-12-18T09:46:09;-3.30;99.90
31639;DHT22;18248;51.522;7.020;2022-12-18T09:49:14;-3.20;99.90
31639;DHT22;18248;51.522;7.020;2022-12-18T09:52:40;-3.10;99.90
31639;DHT22;18248;51.522;7.020;2022-12-18T09:55:41;-3.00;99.90
31639;DHT22;18248;51.522;7.020;2022-12-18T09:58:57;-2.80;99.90
31639;DHT22;18248;51.522;7.020;2022-12-18T10:01:56;-2.70;99.90
31639;DHT22;18248;51.522;7.020;2022-12-18T10:05:03;-2.60;99.90
31639;DHT22;18248;51.522;7.020;2022-12-18T10:08:21;-2.50;99.90
31639;DHT22;18248;51.522;7.020;2022-12-18T10:11:29;-2.40;99.90
31639;DHT22;18248;51.522;7.020;2022-12-18T10:17:54;-2.10;99.90
31639;DHT22;18248;51.522;7.020;2022-12-18T10:20:58;-2.00;99.90
31639;DHT22;18248;51.522;7.020;2022-12-18T10:24:24;-1.90;99.90
31639;DHT22;18248;51.522;7.020;2022-12-18T10:27:26;-1.80;99.90
31639;DHT22;18248;51.522;7.020;2022-12-18T10:30:26;-1.60;99.90
31639;DHT22;18248;51.522;7.020;2022-12-18T10:33:30;-1.50;99.90
31639;DHT22;18248;51.522;7.020;2022-12-18T10:36:29;-1.40;99.90
31639;DHT22;18248;51.522;7.020;2022-12-18T10:39:28;-1.30;99.90
31639;DHT22;18248;51.522;7.020;2022-12-18T10:42:26;-1.20;99.90
31639;DHT22;18248;51.522;7.020;2022-12-18T10:45:25;-1.10;99.90
31639;DHT22;18248;51.522;7.020;2022-12-18T10:48:24;-1.00;99.90
31639;DHT22;18248;51.522;7.020;2022-12-18T10:51:36;-0.90;99.90
31639;DHT22;18248;51.522;7.020;2022-12-18T10:54:36;-0.70;99.90
31639;DHT22;18248;51.522;7.020;2022-12-18T10:57:39;-0.60;99.90
31639;DHT22;18248;51.522;7.020;2022-12-18T11:00:39;-0.60;99.90
31639;DHT22;18248;51.522;7.020;2022-12-18T11:06:57;-0.30;99.90
31639;DHT22;18248;51.522;7.020;2022-12-18T11:10:01;-0.30;99.90
31639;DHT22;18248;51.522;7.020;2022-12-18T11:13:15;-0.20;99.90
31639;DHT22;18248;51.522;7.020;2022-12-18T11:16:19;-0.20;99.90
31639;DHT22;18248;51.522;7.020;2022-12-18T11:19:37;-0.10;99.90
31639;DHT22;18248;51.522;7.020;2022-12-18T11:22:37;0.00;99.90
31639;DHT22;18248;51.522;7.020;2022-12-18T11:25:36;0.00;99.90
31639;DHT22;18248;51.522;7.020;2022-12-18T11:28:40;0.10;99.90
31639;DHT22;18248;51.522;7.020;2022-12-18T11:31:40;0.20;99.90
31639;DHT22;18248;51.522;7.020;2022-12-18T11:34:39;0.30;99.90
31639;DHT22;18248;51.522;7.020;2022-12-18T11:37:43;0.30;99.90
31639;DHT22;18248;51.522;7.020;2022-12-18T11:40:47;0.30;99.90
31639;DHT22;18248;51.522;7.020;2022-12-18T11:43:54;0.40;99.90
31639;DHT22;18248;51.522;7.020;2022-12-18T11:47:01;0.50;99.90
31639;DHT22;18248;51.522;7.020;2022-12-18T11:50:05;0.50;99.90
31639;DHT22;18248;51.522;7.020;2022-12-18T11:53:12;0.60;99.90
31639;DHT22;18248;51.522;7.020;2022-12-18T11:56:29;0.60;99.90
31639;DHT22;18248;51.522;7.020;2022-12-18T11:59:49;0.70;99.90
31639;DHT22;18248;51.522;7.020;2022-12-18T12:03:16;0.70;99.90
31639;DHT22;18248;51.522;7.020;2022-12-18T12:16:17;0.90;99.90
31639;DHT22;18248;51.522;7.020;2022-12-18T12:19:28;1.00;99.90
31639;DHT22;18248;51.522;7.020;2022-12-18T12:22:51;1.00;99.90
31639;DHT22;18248;51.522;7.020;2022-12-18T12:25:57;1.00;99.90
31639;DHT22;18248;51.522;7.020;2022-12-18T12:29:23;1.10;99.90
31639;DHT22;18248;51.522;7.020;2022-12-18T12:32:31;1.10;99.90
31639;DHT22;18248;51.522;7.020;2022-12-18T12:39:03;1.10;99.90
31639;DHT22;18248;51.522;7.020;2022-12-18T12:42:15;1.10;99.90
31639;DHT22;18248;51.522;7.020;2022-12-18T12:45:51;1.20;99.90
31639;DHT22;18248;51.522;7.020;2022-12-18T12:49:01;1.20;99.90
31639;DHT22;18248;51.522;7.020;2022-12-18T12:52:06;1.30;99.90
31639;DHT22;18248;51.522;7.020;2022-12-18T12:55:17;1.20;99.90
31639;DHT22;18248;51.522;7.020;2022-12-18T12:58:32;1.30;99.90
31639;DHT22;18248;51.522;7.020;2022-12-18T13:02:04;1.30;99.90
31639;DHT22;18248;51.522;7.020;2022-12-18T13:08:30;1.40;99.90
31639;DHT22;18248;51.522;7.020;2022-12-18T13:11:38;1.40;99.90
31639;DHT22;18248;51.522;7.020;2022-12-18T13:15:13;1.40;99.90
31639;DHT22;18248;51.522;7.020;2022-12-18T13:18:21;1.40;99.90
31639;DHT22;18248;51.522;7.020;2022-12-18T13:21:28;1.40;99.90
31639;DHT22;18248;51.522;7.020;2022-12-18T13:24:30;1.40;99.90
31639;DHT22;18248;51.522;7.020;2022-12-18T13:30:56;1.50;99.90
31639;DHT22;18248;51.522;7.020;2022-12-18T13:37:41;1.50;99.90
31639;DHT22;18248;51.522;7.020;2022-12-18T13:43:42;1.40;99.90
31639;DHT22;18248;51.522;7.020;2022-12-18T13:46:46;1.50;99.90
31639;DHT22;18248;51.522;7.020;2022-12-18T13:49:46;1.50;99.90
31639;DHT22;18248;51.522;7.020;2022-12-18T13:52:45;1.50;99.90
31639;DHT22;18248;51.522;7.020;2022-12-18T13:55:45;1.40;99.90
31639;DHT22;18248;51.522;7.020;2022-12-18T13:58:43;1.50;99.90
31639;DHT22;18248;51.522;7.020;2022-12-18T14:01:46;1.50;99.90
31639;DHT22;18248;51.522;7.020;2022-12-18T14:04:46;1.50;99.90
31639;DHT22;18248;51.522;7.020;2022-12-18T14:07:44;1.60;99.90
31639;DHT22;18248;51.522;7.020;2022-12-18T14:10:45;1.50;99.90
31639;DHT22;18248;51.522;7.020;2022-12-18T14:13:46;1.50;99.90
31639;DHT22;18248;51.522;7.020;2022-12-18T14:16:46;1.50;99.90
31639;DHT22;18248;51.522;7.020;2022-12-18T14:19:47;1.50;99.90
31639;DHT22;18248;51.522;7.020;2022-12-18T14:22:48;1.50;99.90
31639;DHT22;18248;51.522;7.020;2022-12-18T14:25:47;1.50;99.90
31639;DHT22;18248;51.522;7.020;2022-12-18T14:28:46;1.40;99.90
31639;DHT22;18248;51.522;7.020;2022-12-18T14:31:44;1.50;99.90
31639;DHT22;18248;51.522;7.020;2022-12-18T14:34:48;1.50;99.90
31639;DHT22;18248;51.522;7.020;2022-12-18T14:37:46;1.50;99.90
31639;DHT22;18248;51.522;7.020;2022-12-18T14:40:45;1.50;99.90
31639;DHT22;18248;51.522;7.020;2022-12-18T14:43:46;1.50;99.90
31639;DHT22;18248;51.522;7.020;2022-12-18T14:46:46;1.40;99.90
31639;DHT22;18248;51.522;7.020;2022-12-18T14:49:45;1.40;99.90
31639;DHT22;18248;51.522;7.020;2022-12-18T14:52:44;1.40;99.90
31639;DHT22;18248;51.522;7.020;2022-12-18T14:55:46;1.50;99.90
31639;DHT22;18248;51.522;7.020;2022-12-18T14:58:52;1.70;99.90
31639;DHT22;18248;51.522;7.020;2022-12-18T15:01:59;1.80;99.90
31639;DHT22;18248;51.522;7.020;2022-12-18T15:05:05;1.80;99.90
31639;DHT22;18248;51.522;7.020;2022-12-18T15:08:28;1.90;99.90
31639;DHT22;18248;51.522;7.020;2022-12-18T15:11:43;1.90;99.90
31639;DHT22;18248;51.522;7.020;2022-12-18T15:14:42;2.00;99.90
31639;DHT22;18248;51.522;7.020;2022-12-18T15:17:41;1.90;99.90
31639;DHT22;18248;51.522;7.020;2022-12-18T15:23:50;2.10;99.90
31639;DHT22;18248;51.522;7.020;2022-12-18T15:26:50;2.10;99.90
31639;DHT22;18248;51.522;7.020;2022-12-18T15:33:26;2.20;99.90
31639;DHT22;18248;51.522;7.020;2022-12-18T15:36:25;2.20;99.90
31639;DHT22;18248;51.522;7.020;2022-12-18T15:39:24;2.20;99.90
31639;DHT22;18248;51.522;7.020;2022-12-18T15:42:22;2.20;99.90
31639;DHT22;18248;51.522;7.020;2022-12-18T15:45:40;2.10;99.90
31639;DHT22;18248;51.522;7.020;2022-12-18T15:48:44;2.10;99.90
31639;DHT22;18248;51.522;7.020;2022-12-18T15:51:42;2.20;99.90
31639;DHT22;18248;51.522;7.020;2022-12-18T15:54:41;2.20;99.90
31639;DHT22;18248;51.522;7.020;2022-12-18T15:57:59;2.20;99.90
31639;DHT22;18248;51.522;7.020;2022-12-18T16:00:59;2.20;99.90
31639;DHT22;18248;51.522;7.020;2022-12-18T16:03:59;2.20;99.90
31639;DHT22;18248;51.522;7.020;2022-12-18T16:06:57;2.20;99.90
31639;DHT22;18248;51.522;7.020;2022-12-18T16:09:56;2.20;99.90
31639;DHT22;18248;51.522;7.020;2022-12-18T16:12:55;2.10;99.90
31639;DHT22;18248;51.522;7.020;2022-12-18T16:15:54;2.10;99.90
31639;DHT22;18248;51.522;7.020;2022-12-18T16:18:52;2.10;99.90
31639;DHT22;18248;51.522;7.020;2022-12-18T16:21:52;2.00;99.90
31639;DHT22;18248;51.522;7.020;2022-12-18T16:24:52;2.00;99.90
31639;DHT22;18248;51.522;7.020;2022-12-18T16:27:53;1.90;99.90
31639;DHT22;18248;51.522;7.020;2022-12-18T16:30:53;1.90;99.90
31639;DHT22;18248;51.522;7.020;2022-12-18T16:34:18;1.80;99.90
31639;DHT22;18248;51.522;7.020;2022-12-18T16:37:19;1.80;99.90
31639;DHT22;18248;51.522;7.020;2022-12-18T16:40:18;1.80;99.90
31639;DHT22;18248;51.522;7.020;2022-12-18T16:43:17;1.80;99.90
31639;DHT22;18248;51.522;7.020;2022-12-18T16:46:15;1.80;99.90
31639;DHT22;18248;51.522;7.020;2022-12-18T16:49:15;1.80;99.90
31639;DHT22;18248;51.522;7.020;2022-12-18T16:52:14;1.80;99.90
31639;DHT22;18248;51.522;7.020;2022-12-18T16:55:13;1.80;99.90
31639;DHT22;18248;51.522;7.020;2022-12-18T16:58:11;1.90;99.90
31639;DHT22;18248;51.522;7.020;2022-12-18T17:01:10;1.80;99.90
31639;DHT22;18248;51.522;7.020;2022-12-18T17:04:09;1.90;99.90
31639;DHT22;18248;51.522;7.020;2022-12-18T17:07:08;2.00;99.90
31639;DHT22;18248;51.522;7.020;2022-12-18T17:10:08;2.00;99.90
31639;DHT22;18248;51.522;7.020;2022-12-18T17:13:08;2.00;99.90
31639;DHT22;18248;51.522;7.020;2022-12-18T17:16:08;2.00;99.90
31639;DHT22;18248;51.522;7.020;2022-12-18T17:19:07;2.10;99.90
31639;DHT22;18248;51.522;7.020;2022-12-18T17:22:05;2.10;99.90
31639;DHT22;18248;51.522;7.020;2022-12-18T17:25:06;2.10;99.90
31639;DHT22;18248;51.522;7.020;2022-12-18T17:28:05;2.20;99.90
31639;DHT22;18248;51.522;7.020;2022-12-18T17:31:19;2.20;99.90
31639;DHT22;18248;51.522;7.020;2022-12-18T17:34:19;2.20;99.90
31639;DHT22;18248;51.522;7.020;2022-12-18T17:37:19;2.30;99.90
31639;DHT22;18248;51.522;7.020;2022-12-18T17:40:17;2.30;99.90
31639;DHT22;18248;51.522;7.020;2022-12-18T17:43:16;2.30;99.90
31639;DHT22;18248;51.522;7.020;2022-12-18T17:46:14;2.20;99.90
31639;DHT22;18248;51.522;7.020;2022-12-18T17:49:13;2.20;99.90
31639;DHT22;18248;51.522;7.020;2022-12-18T17:52:13;2.30;99.90
31639;DHT22;18248;51.522;7.020;2022-12-18T17:55:11;2.20;99.90
31639;DHT22;18248;51.522;7.020;2022-12-18T17:58:10;2.20;99.90
31639;DHT22;18248;51.522;7.020;2022-12-18T18:01:12;2.30;99.90
31639;DHT22;18248;51.522;7.020;2022-12-18T18:04:11;2.30;99.90
31639;DHT22;18248;51.522;7.020;2022-12-18T18:07:09;2.30;99.90
31639;DHT22;18248;51.522;7.020;2022-12-18T18:10:08;2.30;99.90
31639;DHT22;18248;51.522;7.020;2022-12-18T18:13:19;2.30;99.90
31639;DHT22;18248;51.522;7.020;2022-12-18T18:16:38;2.30;99.90
31639;DHT22;18248;51.522;7.020;2022-12-18T18:19:37;2.30;99.90
31639;DHT22;18248;51.522;7.020;2022-12-18T18:22:39;2.30;99.90
31639;DHT22;18248;51.522;7.020;2022-12-18T18:25:37;2.20;99.90
31639;DHT22;18248;51.522;7.020;2022-12-18T18:28:37;2.20;99.90
31639;DHT22;18248;51.522;7.020;2022-12-18T18:31:38;2.20;99.90
31639;DHT22;18248;51.522;7.020;2022-12-18T18:34:37;2.20;99.90
31639;DHT22;18248;51.522;7.020;2022-12-18T18:37:35;2.20;99.90
31639;DHT22;18248;51.522;7.020;2022-12-18T18:40:34;2.30;99.90
31639;DHT22;18248;51.522;7.020;2022-12-18T18:43:32;2.20;99.90
31639;DHT22;18248;51.522;7.020;2022-12-18T18:46:31;2.20;99.90
31639;DHT22;18248;51.522;7.020;2022-12-18T18:49:30;2.20;99.90
31639;DHT22;18248;51.522;7.020;2022-12-18T18:52:29;2.20;99.90
31639;DHT22;18248;51.522;7.020;2022-12-18T18:55:27;2.30;99.90
31639;DHT22;18248;51.522;7.020;2022-12-18T18:58:26;2.20;99.90
31639;DHT22;18248;51.522;7.020;2022-12-18T19:01:26;2.20;99.90
31639;DHT22;18248;51.522;7.020;2022-12-18T19:04:24;2.20;99.90
31639;DHT22;18248;51.522;7.020;2022-12-18T19:07:23;2.20;99.90
31639;DHT22;18248;51.522;7.020;2022-12-18T19:10:21;2.20;99.90
31639;DHT22;18248;51.522;7.020;2022-12-18T19:13:22;2.20;99.90
31639;DHT22;18248;51.522;7.020;2022-12-18T19:16:26;2.20;99.90
31639;DHT22;18248;51.522;7.020;2022-12-18T19:19:24;2.30;99.90
31639;DHT22;18248;51.522;7.020;2022-12-18T19:22:24;2.20;99.90
31639;DHT22;18248;51.522;7.020;2022-12-18T19:25:24;2.20;99.90
31639;DHT22;18248;51.522;7.020;2022-12-18T19:28:22;2.20;99.90
31639;DHT22;18248;51.522;7.020;2022-12-18T19:31:23;2.20;99.90
31639;DHT22;18248;51.522;7.020;2022-12-18T19:34:22;2.20;99.90
31639;DHT22;18248;51.522;7.020;2022-12-18T19:37:21;2.20;99.90
31639;DHT22;18248;51.522;7.020;2022-12-18T19:40:19;2.20;99.90
31639;DHT22;18248;51.522;7.020;2022-12-18T19:43:18;2.20;99.90
31639;DHT22;18248;51.522;7.020;2022-12-18T19:46:19;2.20;99.90
31639;DHT22;18248;51.522;7.020;2022-12-18T19:49:18;2.20;99.90
31639;DHT22;18248;51.522;7.020;2022-12-18T19:52:16;2.20;99.90
31639;DHT22;18248;51.522;7.020;2022-12-18T19:55:15;2.20;99.90
31639;DHT22;18248;51.522;7.020;2022-12-18T19:58:13;2.20;99.90
31639;DHT22;18248;51.522;7.020;2022-12-18T20:01:14;2.20;99.90
31639;DHT22;18248;51.522;7.020;2022-12-18T20:04:12;2.30;99.90
31639;DHT22;18248;51.522;7.020;2022-12-18T20:07:11;2.30;99.90
31639;DHT22;18248;51.522;7.020;2022-12-18T20:10:12;2.30;99.90
31639;DHT22;18248;51.522;7.020;2022-12-18T20:13:11;2.30;99.90
31639;DHT22;18248;51.522;7.020;2022-12-18T20:16:09;2.30;99.90